Time;durP1;ratioP1;P1;durP2;ratioP2;P2;SDS_P1;SDS_P2;PMS_P1;PMS_P2;Temp;Humidity;BMP_temperature;BMP_pressure;BME280_temperature;BME280_humidity;BME280_pressure;Samples;Min_cycle;Max_cycle;Signal;HPM_P1;HPM_P2
2023/09/16 00:00:55;;;;;;;4.78;3.35;;;;;;;14.23;100.00;100822.28;5156878;28;20042;-73
2023/09/16 00:03:26;;;;;;;5.63;2.75;;;;;;;14.30;100.00;100817.59;5158142;28;20089;-73
2023/09/16 00:05:56;;;;;;;7.68;3.10;;;;;;;14.27;100.00;100818.56;5158540;28;20030;-74
2023/09/16 00:08:26;;;;;;;6.00;3.33;;;;;;;14.35;100.00;100821.72;5157897;28;20097;-74
2023/09/16 00:10:57;;;;;;;4.82;2.78;;;;;;;14.41;100.00;100807.44;5158253;28;20103;-74
2023/09/16 00:13:27;;;;;;;5.75;3.10;;;;;;;14.39;100.00;100809.28;5159454;28;20022;-73
2023/09/16 00:15:58;;;;;;;4.90;3.03;;;;;;;14.28;100.00;100809.75;5156331;28;20033;-73
2023/09/16 00:18:28;;;;;;;7.53;2.83;;;;;;;14.26;100.00;100816.88;5156282;28;20471;-73
2023/09/16 00:20:59;;;;;;;4.90;2.95;;;;;;;14.32;100.00;100810.47;5152049;28;20231;-72
2023/09/16 00:23:31;;;;;;;6.45;3.25;;;;;;;14.25;100.00;100802.03;5147826;28;20088;-74
2023/09/16 00:26:03;;;;;;;4.53;3.00;;;;;;;14.24;100.00;100792.44;5156245;28;20046;-74
2023/09/16 00:28:35;;;;;;;6.38;3.50;;;;;;;14.23;100.00;100803.03;5153326;28;20160;-72
2023/09/16 00:31:07;;;;;;;5.40;3.20;;;;;;;14.25;100.00;100799.38;5154517;28;20105;-73
2023/09/16 00:33:37;;;;;;;5.85;3.45;;;;;;;14.11;100.00;100799.13;5154363;28;20053;-73
2023/09/16 00:36:14;;;;;;;4.95;3.22;;;;;;;14.10;100.00;100807.13;5157219;28;20022;-73
2023/09/16 00:38:44;;;;;;;5.35;3.08;;;;;;;14.02;100.00;100796.09;5146264;28;20606;-74
2023/09/16 00:41:14;;;;;;;6.50;3.40;;;;;;;13.95;100.00;100792.88;5158426;28;20026;-73
2023/09/16 00:43:45;;;;;;;6.85;3.65;;;;;;;14.09;100.00;100789.66;5155292;28;20117;-74
2023/09/16 00:46:15;;;;;;;10.13;4.50;;;;;;;14.07;100.00;100787.06;5157264;28;20022;-74
2023/09/16 00:48:45;;;;;;;13.82;8.38;;;;;;;14.26;100.00;100787.13;5155048;28;20034;-74
2023/09/16 00:51:16;;;;;;;15.60;8.80;;;;;;;14.21;100.00;100789.09;5155039;28;20101;-74
2023/09/16 00:53:46;;;;;;;10.30;5.15;;;;;;;14.17;100.00;100787.53;5155391;28;20240;-73
2023/09/16 00:56:17;;;;;;;7.53;4.22;;;;;;;14.15;100.00;100789.34;5155954;28;20068;-73
2023/09/16 00:58:47;;;;;;;5.47;3.63;;;;;;;14.08;100.00;100790.56;5157174;28;20786;-73
2023/09/16 01:01:18;;;;;;;7.30;3.63;;;;;;;14.11;100.00;100790.41;5156097;28;20022;-74
2023/09/16 01:03:49;;;;;;;5.57;3.30;;;;;;;14.14;100.00;100788.50;5150848;28;20030;-73
2023/09/16 01:06:19;;;;;;;7.40;3.75;;;;;;;14.01;100.00;100781.25;5155409;28;20050;-73
2023/09/16 01:08:50;;;;;;;8.18;3.90;;;;;;;14.08;100.00;100777.44;5136207;28;20073;-74
2023/09/16 01:11:21;;;;;;;5.97;3.63;;;;;;;14.09;100.00;100777.34;5152791;28;20027;-74
2023/09/16 01:13:52;;;;;;;6.63;3.95;;;;;;;14.15;100.00;100774.44;5153154;28;20121;-72
2023/09/16 01:16:32;;;;;;;6.10;4.03;;;;;;;14.14;100.00;100769.25;5156330;28;20818;-74
2023/09/16 01:19:22;;;;;;;6.07;4.07;;;;;;;14.08;100.00;100769.53;5154037;28;20026;-73
2023/09/16 01:21:53;;;;;;;4.95;3.60;;;;;;;14.00;100.00;100769.03;5153935;28;20092;-74
2023/09/16 01:24:24;;;;;;;6.93;3.85;;;;;;;13.99;100.00;100775.22;5157028;28;20037;-74
2023/09/16 01:26:54;;;;;;;7.50;3.92;;;;;;;13.92;100.00;100760.66;5151385;28;20038;-74
2023/09/16 01:29:26;;;;;;;6.05;3.92;;;;;;;13.92;100.00;100755.41;5155261;28;20030;-74
2023/09/16 01:32:01;;;;;;;5.55;3.83;;;;;;;13.89;100.00;100750.31;5152850;28;20773;-74
2023/09/16 01:34:36;;;;;;;7.85;4.65;;;;;;;13.93;100.00;100762.38;5154423;28;20483;-74
2023/09/16 01:37:11;;;;;;;9.98;4.38;;;;;;;13.94;100.00;100762.28;5151979;28;20399;-73
2023/09/16 01:39:46;;;;;;;7.45;4.90;;;;;;;13.92;100.00;100758.88;5151743;28;20038;-73
2023/09/16 01:42:17;;;;;;;6.77;4.43;;;;;;;13.93;100.00;100762.38;5153393;28;20031;-74
2023/09/16 01:44:51;;;;;;;9.80;4.57;;;;;;;13.91;100.00;100761.59;5152605;28;20686;-74
2023/09/16 01:47:22;;;;;;;7.72;4.53;;;;;;;13.93;100.00;100759.75;5154500;28;20104;-73
2023/09/16 01:49:52;;;;;;;10.50;4.70;;;;;;;13.91;100.00;100766.84;5151851;28;20046;-74
2023/09/16 01:52:22;;;;;;;10.57;4.85;;;;;;;13.97;100.00;100774.44;5155591;28;20112;-74
2023/09/16 01:54:53;;;;;;;6.50;4.30;;;;;;;13.96;100.00;100770.09;5149635;28;20408;-74
2023/09/16 01:57:23;;;;;;;9.55;5.07;;;;;;;13.90;100.00;100767.75;5153489;28;20029;-73
2023/09/16 01:59:53;;;;;;;14.10;5.10;;;;;;;13.92;100.00;100758.03;5151908;28;20037;-74
2023/09/16 02:02:24;;;;;;;7.65;4.60;;;;;;;13.96;100.00;100757.84;5155513;28;20112;-74
2023/09/16 02:04:54;;;;;;;5.68;4.13;;;;;;;13.96;100.00;100757.84;5152592;28;20073;-74
2023/09/16 02:07:24;;;;;;;7.15;4.25;;;;;;;13.99;100.00;100751.56;5156155;28;20125;-74
2023/09/16 02:09:55;;;;;;;7.13;3.65;;;;;;;13.98;100.00;100744.59;5152830;28;20096;-74
2023/09/16 02:12:25;;;;;;;6.88;4.00;;;;;;;13.90;100.00;100752.00;5153033;28;20022;-73
2023/09/16 02:14:55;;;;;;;7.10;4.53;;;;;;;13.80;100.00;100745.44;5152379;28;20499;-74
2023/09/16 02:17:25;;;;;;;5.53;3.72;;;;;;;13.77;100.00;100756.09;5154103;28;20030;-74
2023/09/16 02:19:56;;;;;;;6.00;3.97;;;;;;;13.78;100.00;100752.56;5150309;28;20491;-74
2023/09/16 02:22:26;;;;;;;5.97;3.75;;;;;;;13.78;100.00;100755.19;5134699;28;20362;-74
2023/09/16 02:24:56;;;;;;;6.10;3.88;;;;;;;13.60;100.00;100762.09;5141639;28;20026;-74
2023/09/16 02:27:27;;;;;;;7.40;4.28;;;;;;;13.63;100.00;100764.63;5154603;28;20045;-73
2023/09/16 02:29:57;;;;;;;7.22;4.22;;;;;;;13.56;100.00;100757.91;5153744;28;20030;-74
2023/09/16 02:32:29;;;;;;;5.85;4.03;;;;;;;13.67;100.00;100760.94;5149772;28;20049;-72
2023/09/16 02:34:59;;;;;;;6.88;4.35;;;;;;;13.67;100.00;100758.31;5157674;28;20027;-73
2023/09/16 02:37:29;;;;;;;8.55;4.20;;;;;;;13.71;100.00;100757.22;5154908;28;20096;-74
2023/09/16 02:40:00;;;;;;;7.15;4.53;;;;;;;13.67;100.00;100754.81;5156883;28;20034;-74
2023/09/16 02:42:30;;;;;;;10.63;4.70;;;;;;;13.66;100.00;100767.09;5140960;28;20463;-73
2023/09/16 02:45:01;;;;;;;8.35;4.63;;;;;;;13.61;100.00;100757.72;5158922;28;20050;-73
2023/09/16 02:47:33;;;;;;;8.07;4.85;;;;;;;13.62;100.00;100762.91;5140031;28;20030;-74
2023/09/16 02:50:04;;;;;;;7.75;4.28;;;;;;;13.60;100.00;100761.28;5155143;28;20346;-73
2023/09/16 02:52:34;;;;;;;6.43;4.28;;;;;;;13.59;100.00;100763.03;5155984;28;20022;-74
2023/09/16 02:55:05;;;;;;;9.88;5.00;;;;;;;13.63;100.00;100758.50;5154872;28;20114;-73
2023/09/16 02:57:35;;;;;;;8.35;4.13;;;;;;;13.68;100.00;100761.75;5154606;28;20034;-74
2023/09/16 03:00:07;;;;;;;7.72;4.45;;;;;;;13.66;100.00;100768.88;5156482;28;20357;-73
2023/09/16 03:02:37;;;;;;;8.77;4.55;;;;;;;13.68;100.00;100767.88;5156863;28;20037;-74
2023/09/16 03:05:08;;;;;;;6.50;4.18;;;;;;;13.66;100.00;100763.59;5157223;28;20251;-74
2023/09/16 03:07:38;;;;;;;7.97;4.90;;;;;;;13.76;100.00;100762.28;5151324;28;20026;-74
2023/09/16 03:10:08;;;;;;;7.30;4.55;;;;;;;13.84;100.00;100758.38;5156608;28;20096;-73
2023/09/16 03:12:39;;;;;;;9.05;4.97;;;;;;;13.75;100.00;100769.28;5151274;28;20038;-74
2023/09/16 03:15:10;;;;;;;6.60;4.00;;;;;;;13.75;100.00;100768.47;5155039;28;20022;-74
2023/09/16 03:17:40;;;;;;;6.85;4.50;;;;;;;13.82;100.00;100764.63;5153402;28;20029;-74
2023/09/16 03:20:10;;;;;;;8.13;4.75;;;;;;;13.72;100.00;100763.34;5155102;28;20040;-73
2023/09/16 03:22:41;;;;;;;7.93;4.70;;;;;;;13.62;100.00;100757.66;5157187;28;20026;-74
2023/09/16 03:25:11;;;;;;;8.20;4.68;;;;;;;13.66;100.00;100758.34;5156141;28;20499;-73
2023/09/16 03:27:41;;;;;;;11.15;5.00;;;;;;;13.62;100.00;100756.78;5155668;28;20030;-74
2023/09/16 03:30:16;;;;;;;11.25;5.20;;;;;;;13.62;100.00;100760.28;5154682;28;20026;-75
2023/09/16 03:32:46;;;;;;;8.85;4.93;;;;;;;13.61;100.00;100758.56;5152170;28;20026;-74
2023/09/16 03:35:16;;;;;;;16.52;6.63;;;;;;;13.53;100.00;100758.06;5154823;28;20498;-75
2023/09/16 03:37:47;;;;;;;13.05;6.38;;;;;;;13.51;100.00;100759.91;5152203;28;21011;-75
2023/09/16 03:40:17;;;;;;;13.48;7.03;;;;;;;13.51;100.00;100759.03;5153594;28;20369;-75
2023/09/16 03:42:47;;;;;;;9.07;6.40;;;;;;;13.50;100.00;100752.09;5151935;28;20420;-74
2023/09/16 03:45:17;;;;;;;10.85;5.35;;;;;;;13.47;100.00;100752.22;5158931;28;20030;-74
2023/09/16 03:47:48;;;;;;;7.93;4.78;;;;;;;13.44;100.00;100752.38;5152316;28;20049;-75
2023/09/16 03:50:18;;;;;;;11.13;4.68;;;;;;;13.44;100.00;100744.50;5154499;28;20060;-75
2023/09/16 03:52:49;;;;;;;9.40;5.25;;;;;;;13.39;100.00;100741.22;5154985;28;20030;-75
2023/09/16 03:55:19;;;;;;;11.18;5.15;;;;;;;13.35;100.00;100747.50;5153674;28;20033;-75
2023/09/16 03:57:50;;;;;;;10.15;5.60;;;;;;;13.40;100.00;100741.13;5153140;28;20030;-74
2023/09/16 04:00:20;;;;;;;9.32;5.60;;;;;;;13.31;100.00;100748.56;5156990;28;20478;-75
2023/09/16 04:02:50;;;;;;;8.75;5.68;;;;;;;13.24;100.00;100744.53;5156136;28;20085;-74
2023/09/16 04:05:21;;;;;;;11.40;6.65;;;;;;;13.15;100.00;100744.91;5158272;28;20391;-74
2023/09/16 04:07:51;;;;;;;12.13;6.22;;;;;;;13.10;100.00;100739.84;5157418;28;20045;-75
2023/09/16 04:10:21;;;;;;;10.70;5.53;;;;;;;13.04;100.00;100732.25;5157918;28;20046;-74
2023/09/16 04:12:52;;;;;;;9.73;5.68;;;;;;;13.04;100.00;100737.50;5156603;28;20046;-75
2023/09/16 04:15:22;;;;;;;11.18;5.72;;;;;;;13.03;100.00;100734.97;5155447;28;20125;-74
2023/09/16 04:17:52;;;;;;;7.72;5.13;;;;;;;12.96;100.00;100728.25;5156392;28;20085;-74
2023/09/16 04:20:24;;;;;;;9.30;5.28;;;;;;;12.90;100.00;100733.72;5154195;28;20073;-75
2023/09/16 04:22:54;;;;;;;11.23;5.35;;;;;;;13.02;100.00;100728.84;5156278;28;20466;-74
2023/09/16 04:25:24;;;;;;;8.60;5.20;;;;;;;13.09;100.00;100730.28;5157693;28;20072;-74
2023/09/16 04:27:55;;;;;;;8.75;5.57;;;;;;;13.10;100.00;100726.72;5156676;28;20543;-74
2023/09/16 04:30:26;;;;;;;8.82;5.20;;;;;;;13.12;100.00;100724.03;5155161;28;20026;-74
2023/09/16 04:32:57;;;;;;;9.73;5.70;;;;;;;13.10;100.00;100720.63;5153534;28;20041;-73
2023/09/16 04:35:27;;;;;;;10.02;5.13;;;;;;;13.12;100.00;100729.28;5157675;28;20403;-75
2023/09/16 04:37:57;;;;;;;10.25;5.10;;;;;;;13.11;100.00;100715.34;5155386;28;20227;-75
2023/09/16 04:40:27;;;;;;;9.73;4.95;;;;;;;13.16;100.00;100721.22;5154162;28;20030;-73
2023/09/16 04:42:58;;;;;;;10.60;5.43;;;;;;;13.14;100.00;100725.69;5156802;28;20060;-75
2023/09/16 04:45:28;;;;;;;10.38;5.15;;;;;;;13.07;100.00;100721.63;5156317;28;20466;-73
2023/09/16 04:48:00;;;;;;;6.95;4.22;;;;;;;12.91;100.00;100719.69;5153667;28;20042;-74
2023/09/16 04:50:31;;;;;;;6.78;4.40;;;;;;;12.75;100.00;100717.78;5147024;28;20362;-74
2023/09/16 04:53:02;;;;;;;6.68;4.40;;;;;;;12.70;100.00;100718.00;5156448;28;20034;-74
2023/09/16 04:55:33;;;;;;;7.13;4.55;;;;;;;12.67;100.00;100723.34;5153559;28;20390;-74
2023/09/16 04:58:04;;;;;;;7.85;4.57;;;;;;;12.57;100.00;100734.28;5153077;28;20034;-74
2023/09/16 05:00:34;;;;;;;8.18;4.80;;;;;;;12.58;100.00;100730.72;5155336;28;20019;-73
2023/09/16 05:03:05;;;;;;;8.13;4.63;;;;;;;12.70;100.00;100719.75;5154783;28;20113;-74
2023/09/16 05:05:35;;;;;;;9.40;4.38;;;;;;;12.68;100.00;100725.06;5158491;28;20042;-74
2023/09/16 05:08:06;;;;;;;9.48;5.25;;;;;;;12.79;100.00;100728.06;5139228;28;20030;-75
2023/09/16 05:10:36;;;;;;;7.47;4.82;;;;;;;12.80;100.00;100724.53;5155479;28;20030;-75
2023/09/16 05:13:06;;;;;;;7.88;4.93;;;;;;;12.78;100.00;100723.75;5157572;28;20640;-75
2023/09/16 05:15:36;;;;;;;7.20;4.22;;;;;;;12.81;100.00;100721.00;5155211;28;20475;-74
2023/09/16 05:20:53;;;;;;;7.45;4.30;;;;;;;12.87;100.00;100727.75;5205506;28;20405;-73
2023/09/16 05:23:23;;;;;;;8.75;5.50;;;;;;;12.93;100.00;100726.59;5214017;28;20402;-77
2023/09/16 05:25:53;;;;;;;8.50;5.20;;;;;;;12.97;100.00;100723.88;5219528;28;20074;-73
2023/09/16 05:28:24;;;;;;;8.68;5.68;;;;;;;13.21;100.00;100718.41;5215851;28;20032;-77
2023/09/16 05:30:58;;;;;;;8.98;5.38;;;;;;;13.11;100.00;100722.34;5195644;28;20052;-74
2023/09/16 05:33:28;;;;;;;9.35;5.63;;;;;;;13.19;100.00;100726.34;5194519;28;20017;-73
2023/09/16 05:35:58;;;;;;;10.65;6.00;;;;;;;13.21;100.00;100721.88;5196026;28;20029;-76
2023/09/16 05:38:29;;;;;;;11.32;5.90;;;;;;;13.34;100.00;100730.91;5196037;28;20033;-73
2023/09/16 05:41:00;;;;;;;10.95;6.00;;;;;;;13.42;100.00;100727.94;5192715;28;20083;-76
2023/09/16 05:43:30;;;;;;;8.85;5.97;;;;;;;13.56;100.00;100726.41;5195617;28;20044;-73
2023/09/16 05:46:01;;;;;;;9.70;5.93;;;;;;;13.64;100.00;100723.44;5195946;28;20033;-75
2023/09/16 05:48:31;;;;;;;10.48;6.78;;;;;;;13.67;100.00;100732.03;5195893;28;20033;-75
2023/09/16 05:51:02;;;;;;;9.13;5.85;;;;;;;13.70;100.00;100728.41;5197283;28;20079;-76
2023/09/16 05:53:33;;;;;;;9.82;6.32;;;;;;;13.78;100.00;100726.28;5171404;28;20451;-75
2023/09/16 05:56:04;;;;;;;12.35;6.47;;;;;;;13.87;100.00;100728.47;5196168;28;20053;-76
2023/09/16 05:58:35;;;;;;;10.90;5.78;;;;;;;13.83;100.00;100726.91;5195123;28;20112;-76
2023/09/16 06:01:05;;;;;;;14.13;5.90;;;;;;;13.86;100.00;100729.41;5194961;28;20451;-74
2023/09/16 06:03:36;;;;;;;8.55;5.47;;;;;;;13.85;100.00;100725.06;5195584;28;20029;-75
2023/09/16 06:06:06;;;;;;;9.60;5.70;;;;;;;13.78;100.00;100713.97;5196283;28;20029;-76
2023/09/16 06:08:37;;;;;;;9.88;5.82;;;;;;;13.80;100.00;100729.69;5196606;28;20034;-76
2023/09/16 06:11:07;;;;;;;9.80;5.60;;;;;;;13.84;100.00;100726.84;5194653;28;20029;-76
2023/09/16 06:13:38;;;;;;;10.20;5.75;;;;;;;13.95;100.00;100728.97;5190825;28;20704;-76
2023/09/16 06:16:08;;;;;;;10.25;5.78;;;;;;;14.07;100.00;100723.16;5192767;28;20067;-76
2023/09/16 06:18:38;;;;;;;12.05;5.70;;;;;;;14.16;100.00;100722.75;5194291;28;20048;-76
2023/09/16 06:21:09;;;;;;;10.98;5.80;;;;;;;14.25;100.00;100719.69;5170817;28;20029;-76
2023/09/16 06:23:39;;;;;;;9.60;5.32;;;;;;;14.43;100.00;100716.16;5187487;28;20017;-76
2023/09/16 06:26:12;;;;;;;8.23;5.60;;;;;;;14.55;100.00;100711.16;5194148;28;20523;-76
2023/09/16 06:28:43;;;;;;;10.70;5.72;;;;;;;14.57;100.00;100718.97;5192401;28;20415;-77
2023/09/16 06:31:13;;;;;;;8.85;5.10;;;;;;;14.69;100.00;100713.06;5191324;28;20039;-73
2023/09/16 06:33:43;;;;;;;12.82;5.80;;;;;;;14.74;100.00;100717.19;5194696;28;20030;-76
2023/09/16 06:36:14;;;;;;;11.02;5.45;;;;;;;14.89;100.00;100711.16;5196578;28;20129;-76
2023/09/16 06:38:45;;;;;;;8.05;5.15;;;;;;;14.98;100.00;100721.22;5195299;28;20033;-77
2023/09/16 06:41:15;;;;;;;12.50;6.30;;;;;;;15.02;100.00;100720.97;5195387;28;20029;-76
2023/09/16 06:43:45;;;;;;;7.38;5.38;;;;;;;15.11;100.00;100722.28;5196211;28;20025;-76
2023/09/16 06:46:17;;;;;;;10.15;5.90;;;;;;;15.14;100.00;100716.84;5195996;28;20429;-77
2023/09/16 06:48:48;;;;;;;10.27;6.45;;;;;;;15.34;100.00;100717.56;5178001;28;20041;-76
2023/09/16 06:51:19;;;;;;;10.07;6.25;;;;;;;15.40;100.00;100711.94;5190214;28;20035;-73
2023/09/16 06:53:49;;;;;;;12.50;6.85;;;;;;;15.58;100.00;100716.25;5193827;28;20116;-76
2023/09/16 06:56:19;;;;;;;7.95;5.68;;;;;;;15.80;100.00;100711.53;5185821;28;20372;-76
2023/09/16 06:58:50;;;;;;;10.20;6.47;;;;;;;16.11;100.00;100703.63;5194267;28;20048;-75
2023/09/16 07:01:20;;;;;;;13.88;6.78;;;;;;;16.29;100.00;100707.88;5192801;28;20025;-76
2023/09/16 07:03:50;;;;;;;11.07;6.50;;;;;;;16.96;100.00;100703.88;5192841;28;20132;-77
2023/09/16 07:06:21;;;;;;;9.18;6.13;;;;;;;18.54;100.00;100693.84;5187249;28;20080;-76
2023/09/16 07:08:51;;;;;;;8.85;5.05;;;;;;;20.64;92.17;100690.22;5190790;28;20116;-74
2023/09/16 07:11:22;;;;;;;8.48;4.30;;;;;;;22.33;82.02;100696.19;5170432;28;20794;-76
2023/09/16 07:13:53;;;;;;;7.30;4.10;;;;;;;23.82;74.60;100698.41;5183672;28;20033;-74
2023/09/16 07:16:35;;;;;;;7.05;4.22;;;;;;;24.62;72.45;100691.13;5178946;28;20111;-76
2023/09/16 07:19:07;;;;;;;8.13;4.40;;;;;;;23.69;75.00;100700.41;5194898;28;20033;-75
2023/09/16 07:21:37;;;;;;;6.68;3.55;;;;;;;23.89;73.71;100707.53;5189159;28;20021;-77
2023/09/16 07:24:08;;;;;;;7.97;4.10;;;;;;;25.04;71.16;100693.34;5195772;28;20047;-77
2023/09/16 07:26:38;;;;;;;6.55;4.05;;;;;;;24.91;71.39;100706.16;5196663;28;20284;-78
2023/09/16 07:29:08;;;;;;;5.22;3.60;;;;;;;26.59;68.81;100693.28;5201085;28;20045;-76
2023/09/16 07:31:38;;;;;;;6.33;3.87;;;;;;;25.57;67.68;100699.84;5171649;28;20025;-74
2023/09/16 07:34:09;;;;;;;5.23;3.23;;;;;;;27.22;66.19;100689.44;5193174;28;20280;-77
2023/09/16 07:36:39;;;;;;;6.47;3.77;;;;;;;27.62;65.39;100687.84;5197253;28;20743;-77
2023/09/16 07:39:09;;;;;;;5.03;3.50;;;;;;;26.02;68.54;100690.09;5202581;28;20585;-76
2023/09/16 07:41:41;;;;;;;5.40;3.40;;;;;;;27.73;63.99;100694.81;5198880;28;20272;-76
2023/09/16 07:44:11;;;;;;;5.03;3.33;;;;;;;26.89;65.69;100691.03;5201764;28;20271;-75
2023/09/16 07:46:41;;;;;;;8.13;3.30;;;;;;;26.75;67.08;100690.75;5198360;28;20042;-77
2023/09/16 07:49:12;;;;;;;5.43;3.88;;;;;;;26.00;67.42;100695.59;5199722;28;20341;-77
2023/09/16 07:51:45;;;;;;;5.57;3.50;;;;;;;26.48;67.55;100687.28;5196743;28;20037;-77
2023/09/16 07:54:16;;;;;;;5.22;3.47;;;;;;;27.10;64.76;100686.19;5199840;28;20799;-77
2023/09/16 07:56:46;;;;;;;7.33;3.40;;;;;;;27.87;63.44;100680.78;5172791;28;20025;-78
2023/09/16 07:59:20;;;;;;;5.90;3.17;;;;;;;27.12;64.60;100689.56;5201392;28;20757;-77
2023/09/16 08:01:50;;;;;;;5.75;3.38;;;;;;;27.97;63.94;100684.19;5197342;28;20029;-78
2023/09/16 08:04:20;;;;;;;5.47;3.77;;;;;;;29.27;60.47;100683.22;5166830;28;20084;-78
2023/09/16 08:06:52;;;;;;;5.03;3.10;;;;;;;28.99;60.23;100679.19;5193268;28;20374;-77
2023/09/16 08:09:22;;;;;;;5.13;3.10;;;;;;;29.08;61.43;100686.28;5190589;28;20754;-78
2023/09/16 08:11:53;;;;;;;10.27;3.90;;;;;;;28.29;61.97;100693.19;5195984;28;20035;-78
2023/09/16 08:14:23;;;;;;;5.97;3.60;;;;;;;29.42;60.44;100697.66;5198401;28;20025;-78
2023/09/16 08:16:57;;;;;;;6.77;3.50;;;;;;;28.73;61.44;100697.34;5194311;28;20370;-77
2023/09/16 08:19:27;;;;;;;6.13;3.80;;;;;;;28.92;60.82;100697.88;5196310;28;20276;-77
2023/09/16 08:21:57;;;;;;;4.43;3.43;;;;;;;28.75;61.29;100706.09;5194750;28;20043;-78
2023/09/16 08:24:28;;;;;;;4.93;2.97;;;;;;;28.96;60.23;100703.78;5197769;28;20278;-74
2023/09/16 08:26:58;;;;;;;5.57;3.25;;;;;;;29.22;60.57;100705.25;5198841;28;20033;-76
2023/09/16 08:29:29;;;;;;;4.67;3.20;;;;;;;29.35;59.69;100702.03;5196096;28;20029;-75
2023/09/16 08:31:59;;;;;;;3.97;2.63;;;;;;;29.88;58.55;100702.28;5197307;28;20878;-77
2023/09/16 08:34:29;;;;;;;5.73;3.37;;;;;;;28.98;60.59;100701.75;5196385;28;20044;-75
2023/09/16 08:37:00;;;;;;;6.13;2.73;;;;;;;30.67;57.87;100694.81;5175610;28;20272;-76
2023/09/16 08:39:30;;;;;;;5.23;3.10;;;;;;;30.06;58.13;100692.13;5195396;28;20037;-77
2023/09/16 08:42:11;;;;;;;4.50;2.83;;;;;;;29.63;58.95;100696.13;5198119;28;20037;-77
2023/09/16 08:44:44;;;;;;;5.97;3.22;;;;;;;30.37;58.17;100698.34;5195543;28;20483;-77
2023/09/16 08:47:19;;;;;;;4.25;2.65;;;;;;;29.86;59.07;100702.44;5192658;28;20075;-77
2023/09/16 08:49:52;;;;;;;5.75;2.70;;;;;;;30.42;58.55;100702.19;5184296;28;20030;-74
2023/09/16 08:52:26;;;;;;;5.88;3.00;;;;;;;29.61;59.56;100705.41;5197375;28;20128;-77
2023/09/16 08:54:57;;;;;;;4.90;2.75;;;;;;;30.07;58.88;100700.03;5195939;28;20087;-77
2023/09/16 08:57:28;;;;;;;3.67;2.50;;;;;;;30.90;55.58;100694.63;5195040;28;20029;-75
2023/09/16 08:59:58;;;;;;;4.47;2.47;;;;;;;29.23;60.02;100696.16;5184841;28;20032;-78
2023/09/16 09:02:29;;;;;;;3.28;2.10;;;;;;;30.25;57.61;100694.38;5183477;28;20042;-74
2023/09/16 09:05:00;;;;;;;4.32;2.17;;;;;;;29.01;59.40;100685.25;5178480;28;20033;-76
2023/09/16 09:07:32;;;;;;;4.57;2.00;;;;;;;29.35;59.66;100689.44;5178123;28;20043;-77
2023/09/16 09:10:03;;;;;;;3.75;2.05;;;;;;;30.27;57.54;100684.25;5170594;28;20105;-77
2023/09/16 09:12:36;;;;;;;6.47;2.35;;;;;;;29.65;57.28;100685.16;5191569;28;20036;-75
2023/09/16 09:15:14;;;;;;;4.45;1.65;;;;;;;28.46;59.52;100680.66;5181244;28;20112;-77
2023/09/16 09:17:48;;;;;;;5.15;1.85;;;;;;;28.14;59.67;100670.63;5194884;28;20034;-77
2023/09/16 09:20:23;;;;;;;3.07;1.80;;;;;;;27.11;63.76;100679.81;5176101;28;20177;-73
2023/09/16 09:22:55;;;;;;;6.90;1.90;;;;;;;26.22;64.45;100686.31;5187611;28;20090;-77
2023/09/16 09:25:27;;;;;;;3.58;1.55;;;;;;;26.29;67.11;100687.38;5192370;28;20041;-76
2023/09/16 09:27:58;;;;;;;5.38;1.65;;;;;;;26.01;65.88;100686.56;5163683;28;20402;-77
2023/09/16 09:30:29;;;;;;;2.95;1.70;;;;;;;25.42;67.42;100677.22;5193074;28;20037;-73
2023/09/16 09:33:00;;;;;;;4.50;1.88;;;;;;;25.46;68.36;100682.16;5195502;28;20029;-77
2023/09/16 09:35:31;;;;;;;2.85;1.70;;;;;;;25.43;68.92;100668.19;5168343;28;20041;-75
2023/09/16 09:38:01;;;;;;;4.10;2.08;;;;;;;25.57;67.38;100678.44;5176637;28;20040;-73
2023/09/16 09:40:32;;;;;;;3.70;1.92;;;;;;;25.42;68.86;100672.72;5188764;28;20060;-75
2023/09/16 09:43:03;;;;;;;3.08;1.80;;;;;;;25.12;70.20;100678.25;5182116;28;20041;-73
2023/09/16 09:45:37;;;;;;;5.05;1.88;;;;;;;25.11;70.81;100678.44;5190532;28;20024;-75
2023/09/16 09:48:07;;;;;;;3.90;1.85;;;;;;;25.21;70.45;100687.28;5171230;28;20033;-74
2023/09/16 09:50:37;;;;;;;3.20;1.92;;;;;;;24.99;68.43;100676.88;5192952;28;20060;-76
2023/09/16 09:53:09;;;;;;;3.53;1.40;;;;;;;24.89;70.03;100671.56;5195018;28;20063;-76
2023/09/16 09:55:40;;;;;;;4.55;1.98;;;;;;;24.62;68.98;100667.06;5187460;28;20063;-76
2023/09/16 09:58:10;;;;;;;5.75;2.05;;;;;;;24.41;71.08;100664.47;5193756;28;20034;-73
2023/09/16 10:00:48;;;;;;;3.40;1.65;;;;;;;24.55;69.16;100661.44;5192633;28;20116;-76
2023/09/16 10:03:21;;;;;;;2.30;1.70;;;;;;;24.37;69.02;100655.06;5194725;28;20037;-75
2023/09/16 10:05:51;;;;;;;2.47;1.60;;;;;;;24.31;69.54;100652.09;5170108;28;20439;-76
2023/09/16 10:08:22;;;;;;;2.97;1.73;;;;;;;24.22;67.81;100652.94;5176380;28;20136;-76
2023/09/16 10:10:54;;;;;;;4.63;1.70;;;;;;;24.21;69.63;100661.94;5197067;28;20083;-76
2023/09/16 10:13:24;;;;;;;5.45;1.90;;;;;;;24.46;70.68;100645.38;5199748;28;20064;-76
2023/09/16 10:15:55;;;;;;;2.45;1.60;;;;;;;24.40;70.33;100637.91;5189892;28;20128;-76
2023/09/16 10:18:28;;;;;;;2.97;1.55;;;;;;;24.68;70.44;100648.63;5175145;28;20120;-76
2023/09/16 10:20:58;;;;;;;2.47;1.40;;;;;;;24.61;69.01;100644.84;5196788;28;20025;-76
2023/09/16 10:23:29;;;;;;;2.80;1.60;;;;;;;24.67;69.26;100628.22;5163713;28;20049;-73
2023/09/16 10:25:59;;;;;;;2.65;1.45;;;;;;;;;;5194804;28;20172;-76
2023/09/16 10:28:32;;;;;;;3.33;1.60;;;;;;;24.61;72.13;100628.81;5191577;28;21339;-76
2023/09/16 10:31:03;;;;;;;4.78;1.58;;;;;;;24.64;70.87;100636.53;5192193;28;20761;-74
2023/09/16 10:33:34;;;;;;;3.65;1.98;;;;;;;24.33;70.95;100634.97;5193332;28;20052;-73
2023/09/16 10:36:06;;;;;;;4.25;1.80;;;;;;;24.38;71.13;100635.38;5195120;28;20627;-75
2023/09/16 10:38:37;;;;;;;4.57;1.80;;;;;;;24.59;72.90;100636.09;5180414;28;20057;-76
2023/09/16 10:41:07;;;;;;;3.45;1.60;;;;;;;24.48;73.79;100630.88;5182009;28;20033;-74
2023/09/16 10:43:38;;;;;;;2.85;1.83;;;;;;;24.59;72.34;100624.56;5192539;28;20071;-76
2023/09/16 10:46:09;;;;;;;2.78;1.80;;;;;;;24.52;70.63;100640.34;5193238;28;20480;-73
2023/09/16 10:48:39;;;;;;;3.00;2.10;;;;;;;24.33;71.59;100634.09;5186273;28;20041;-76
2023/09/16 10:51:17;;;;;;;4.18;2.00;;;;;;;24.27;72.57;100637.34;5195107;28;20110;-73
2023/09/16 10:53:59;;;;;;;3.20;2.00;;;;;;;24.52;72.60;100634.16;5176648;28;20042;-75
2023/09/16 10:56:36;;;;;;;4.40;1.65;;;;;;;24.52;71.74;100637.66;5202819;28;20037;-74
2023/09/16 10:59:10;;;;;;;2.55;1.65;;;;;;;24.43;73.07;100633.16;5196624;28;20046;-73
2023/09/16 11:01:40;;;;;;;4.25;2.30;;;;;;;24.51;73.02;100633.28;5194020;28;20029;-76
2023/09/16 11:04:16;;;;;;;3.10;1.83;;;;;;;24.61;74.69;100633.28;5199845;28;20044;-76
2023/09/16 11:06:52;;;;;;;3.45;2.40;;;;;;;24.65;72.25;100627.53;5204364;28;20013;-75
2023/09/16 11:09:24;;;;;;;3.50;1.98;;;;;;;24.64;72.04;100625.84;5206434;28;20044;-76
2023/09/16 11:11:56;;;;;;;3.80;2.58;;;;;;;24.59;74.19;100628.06;5201285;28;20033;-76
2023/09/16 11:14:26;;;;;;;4.50;2.72;;;;;;;24.72;72.71;100625.97;5196072;28;20046;-74
2023/09/16 11:16:58;;;;;;;4.35;2.38;;;;;;;24.71;73.46;100623.44;5204943;28;20481;-76
2023/09/16 11:19:29;;;;;;;4.18;2.50;;;;;;;24.66;74.34;100621.19;5242817;22;20497;-73
2023/09/16 11:22:01;;;;;;;4.40;2.60;;;;;;;24.46;73.25;100619.50;5221501;28;20025;-74
2023/09/16 11:24:34;;;;;;;3.65;2.33;;;;;;;24.48;72.51;100617.53;5220786;28;20798;-74
2023/09/16 11:27:05;;;;;;;4.78;2.80;;;;;;;24.34;72.33;100609.06;5238437;28;20032;-73
2023/09/16 11:29:36;;;;;;;6.88;2.85;;;;;;;24.26;72.58;100612.47;5231355;28;20085;-74
2023/09/16 11:32:08;;;;;;;6.20;3.53;;;;;;;24.10;70.92;100608.63;5251306;28;20024;-73
2023/09/16 11:34:40;;;;;;;6.00;3.47;;;;;;;24.13;73.17;100609.22;5244755;28;20394;-74
2023/09/16 11:37:10;;;;;;;8.00;4.10;;;;;;;24.19;74.71;100610.50;5236226;28;20090;-74
2023/09/16 11:39:46;;;;;;;5.13;3.58;;;;;;;24.07;72.93;100607.09;5237563;28;20032;-74